createdAt,value
2017-10-05T00:00:18.431Z,66.80
2017-10-05T00:02:46.002Z,66.90
2017-10-05T00:05:13.556Z,67.20
2017-10-05T00:07:41.194Z,67.50
2017-10-05T00:10:08.774Z,67.70
2017-10-05T00:12:36.410Z,67.80
2017-10-05T00:15:03.969Z,67.70
2017-10-05T00:17:31.554Z,67.60
2017-10-05T00:19:59.147Z,67.40
2017-10-05T00:22:26.746Z,67.00
2017-10-05T00:24:54.371Z,67.20
2017-10-05T00:27:21.925Z,67.30
2017-10-05T00:29:49.933Z,67.40
2017-10-05T00:32:17.489Z,67.00
2017-10-05T00:34:45.153Z,66.90
2017-10-05T00:37:12.709Z,67.20
2017-10-05T00:39:40.351Z,67.40
2017-10-05T00:42:08.747Z,68.00
2017-10-05T00:44:36.362Z,68.30
2017-10-05T00:47:03.986Z,68.40
2017-10-05T00:49:31.610Z,67.90
2017-10-05T00:51:59.150Z,68.10
2017-10-05T00:54:26.742Z,68.20
2017-10-05T00:56:54.357Z,68.20
2017-10-05T00:59:21.927Z,68.20
2017-10-05T01:01:49.481Z,67.90
2017-10-05T01:04:17.101Z,67.80
2017-10-05T01:06:44.887Z,67.70
2017-10-05T01:09:12.483Z,67.60
2017-10-05T01:11:40.130Z,67.20
2017-10-05T01:14:07.702Z,67.10
2017-10-05T01:16:35.242Z,67.00
2017-10-05T01:19:02.859Z,67.10
2017-10-05T01:21:31.215Z,68.20
2017-10-05T01:23:58.774Z,67.90
2017-10-05T01:26:26.433Z,68.10
2017-10-05T01:28:54.417Z,67.70
2017-10-05T01:31:22.063Z,68.00
2017-10-05T01:33:49.673Z,68.20
2017-10-05T01:36:17.262Z,68.30
2017-10-05T01:38:44.801Z,67.70
2017-10-05T01:41:12.454Z,68.00
2017-10-05T01:43:40.059Z,67.60
2017-10-05T01:46:07.616Z,67.70
2017-10-05T01:48:35.231Z,67.90
2017-10-05T01:51:02.795Z,67.50
2017-10-05T01:53:30.354Z,67.70
2017-10-05T01:55:57.965Z,68.10
2017-10-05T01:58:25.525Z,68.10
2017-10-05T02:00:53.070Z,68.10
2017-10-05T02:03:20.681Z,67.80
2017-10-05T02:05:48.246Z,67.70
2017-10-05T02:08:15.887Z,68.30
2017-10-05T02:10:43.534Z,69.10
2017-10-05T02:13:11.082Z,69.20
2017-10-05T02:15:38.638Z,69.00
2017-10-05T02:18:06.283Z,68.90
2017-10-05T02:20:33.840Z,68.60
2017-10-05T02:23:01.421Z,69.50
2017-10-05T02:25:29.059Z,69.20
2017-10-05T02:27:56.649Z,69.50
2017-10-05T02:30:24.258Z,68.80
2017-10-05T02:32:52.654Z,67.80
2017-10-05T02:35:20.235Z,67.70
2017-10-05T02:37:47.876Z,67.30
2017-10-05T02:40:15.490Z,67.70
2017-10-05T02:42:43.050Z,67.90
2017-10-05T02:45:10.708Z,68.10
2017-10-05T02:47:38.327Z,69.60
2017-10-05T02:50:05.890Z,70.30
2017-10-05T02:52:33.577Z,70.30
2017-10-05T02:55:01.211Z,70.20
2017-10-05T02:57:28.852Z,70.70
2017-10-05T02:59:56.429Z,71.60
2017-10-05T03:02:24.070Z,71.50
2017-10-05T03:04:51.631Z,71.10
2017-10-05T03:07:19.188Z,71.10
2017-10-05T03:09:46.848Z,70.90
2017-10-05T03:12:14.434Z,70.80
2017-10-05T03:14:42.072Z,70.60
2017-10-05T03:17:09.762Z,70.10
2017-10-05T03:19:37.402Z,70.40
2017-10-05T03:22:04.966Z,70.40
2017-10-05T03:24:32.626Z,69.80
2017-10-05T03:27:00.186Z,69.20
2017-10-05T03:29:27.750Z,70.00
2017-10-05T03:31:55.422Z,70.50
2017-10-05T03:34:22.970Z,71.30
2017-10-05T03:36:50.566Z,70.20
2017-10-05T03:39:18.185Z,69.80
2017-10-05T03:41:45.820Z,69.30
2017-10-05T03:44:13.400Z,69.00
2017-10-05T03:46:41.068Z,69.20
2017-10-05T03:49:08.666Z,68.90
2017-10-05T03:51:36.220Z,69.00
2017-10-05T03:54:03.843Z,68.20
2017-10-05T03:56:31.477Z,68.10
2017-10-05T03:58:59.037Z,68.10
2017-10-05T04:01:26.698Z,68.70
2017-10-05T04:03:54.358Z,69.00
2017-10-05T04:06:21.933Z,69.40
2017-10-05T04:08:49.945Z,69.50
2017-10-05T04:11:17.504Z,69.00
2017-10-05T04:13:45.118Z,69.10
2017-10-05T04:16:12.726Z,68.80
2017-10-05T04:18:40.283Z,68.60
2017-10-05T04:21:07.834Z,67.40
2017-10-05T04:23:35.438Z,66.60
2017-10-05T04:26:03.054Z,66.20
2017-10-05T04:28:30.609Z,65.90
2017-10-05T04:30:58.277Z,65.80
2017-10-05T04:33:25.834Z,65.80
2017-10-05T04:35:53.391Z,65.70
2017-10-05T04:38:21.014Z,65.70
2017-10-05T04:40:48.574Z,66.10
2017-10-05T04:43:16.186Z,65.70
2017-10-05T04:45:43.830Z,66.30
2017-10-05T04:48:11.448Z,68.10
2017-10-05T04:50:39.088Z,68.50
2017-10-05T04:53:06.750Z,69.50
2017-10-05T04:55:34.345Z,69.20
2017-10-05T04:58:01.890Z,69.30
2017-10-05T05:00:29.512Z,69.30
2017-10-05T05:02:57.453Z,69.30
2017-10-05T05:05:25.013Z,68.90
2017-10-05T05:07:52.634Z,68.70
2017-10-05T05:10:20.198Z,68.70
2017-10-05T05:12:47.758Z,69.10
2017-10-05T05:15:15.421Z,69.50
2017-10-05T05:17:42.971Z,69.20
2017-10-05T05:20:10.970Z,69.30
2017-10-05T05:22:38.809Z,69.40
2017-10-05T05:25:06.849Z,69.80
2017-10-05T05:27:34.426Z,70.10
2017-10-05T05:30:02.738Z,69.80
2017-10-05T05:32:30.343Z,71.10
2017-10-05T05:34:57.901Z,71.80
2017-10-05T05:37:25.504Z,72.10
2017-10-05T05:39:53.121Z,71.80
2017-10-05T05:42:20.748Z,73.00
2017-10-05T05:44:48.339Z,73.40
2017-10-05T05:47:16.764Z,73.70
2017-10-05T05:49:44.376Z,73.40
2017-10-05T05:52:11.971Z,73.80
2017-10-05T05:54:39.614Z,73.20
2017-10-05T05:57:08.201Z,73.20
2017-10-05T05:59:35.942Z,72.90
2017-10-05T06:02:04.651Z,72.40
2017-10-05T06:04:32.321Z,72.10
2017-10-05T06:07:00.154Z,72.40
2017-10-05T06:09:27.714Z,72.70
2017-10-05T06:11:55.711Z,72.30
2017-10-05T06:14:23.265Z,72.40
2017-10-05T06:16:50.897Z,70.00
2017-10-05T06:19:19.204Z,72.00
2017-10-05T06:21:47.509Z,72.10
2017-10-05T06:24:15.517Z,71.50
2017-10-05T06:26:43.074Z,71.40
2017-10-05T06:29:10.658Z,70.80
2017-10-05T06:31:38.971Z,70.70
2017-10-05T06:34:06.585Z,70.70
2017-10-05T06:36:34.146Z,70.30
2017-10-05T06:39:01.749Z,69.20
2017-10-05T06:41:29.301Z,68.90
2017-10-05T06:43:56.852Z,68.40
2017-10-05T06:46:24.597Z,68.70
2017-10-05T06:48:52.594Z,70.10
2017-10-05T06:51:20.209Z,69.30
2017-10-05T06:53:47.892Z,69.60
2017-10-05T06:56:15.442Z,69.70
2017-10-05T06:58:43.073Z,70.30
2017-10-05T07:01:11.631Z,69.70
2017-10-05T07:03:39.281Z,69.50
2017-10-05T07:06:06.889Z,69.40
2017-10-05T07:08:34.436Z,68.80
2017-10-05T07:13:31.003Z,68.00
2017-10-05T07:15:58.601Z,68.20
2017-10-05T07:18:26.153Z,68.00
2017-10-05T07:20:54.098Z,68.60
2017-10-05T07:23:21.694Z,68.50
2017-10-05T07:25:50.393Z,67.90
2017-10-05T07:28:18.789Z,68.10
2017-10-05T07:30:46.346Z,68.30
2017-10-05T07:33:14.724Z,67.70
2017-10-05T07:35:42.287Z,68.20
2017-10-05T07:38:09.901Z,67.60
2017-10-05T07:40:37.456Z,68.40
2017-10-05T07:43:05.013Z,68.40
2017-10-05T07:45:32.653Z,67.80
2017-10-05T07:48:00.279Z,67.60
2017-10-05T07:50:28.682Z,68.50
2017-10-05T07:52:56.229Z,67.90
2017-10-05T07:55:23.772Z,67.30
2017-10-05T07:57:52.151Z,67.50
2017-10-05T08:00:20.117Z,66.60
2017-10-05T08:02:48.675Z,66.60
2017-10-05T08:05:17.366Z,66.20
2017-10-05T08:07:44.943Z,66.30
2017-10-05T08:10:12.569Z,65.50
2017-10-05T08:12:40.526Z,64.50
2017-10-05T08:15:08.161Z,64.10
2017-10-05T08:17:36.116Z,65.70
2017-10-05T08:20:03.654Z,62.80
2017-10-05T08:22:31.270Z,61.70
2017-10-05T08:24:58.854Z,60.60
2017-10-05T08:27:26.457Z,59.60
2017-10-05T08:29:54.017Z,59.00
2017-10-05T08:32:23.114Z,59.50
2017-10-05T08:34:50.702Z,58.80
2017-10-05T08:37:18.265Z,57.90
2017-10-05T08:39:45.891Z,57.80
2017-10-05T08:42:13.846Z,56.90
2017-10-05T08:44:41.409Z,55.50
2017-10-05T08:47:09.123Z,54.90
2017-10-05T08:49:37.428Z,55.30
2017-10-05T08:52:05.102Z,54.50
2017-10-05T08:54:34.487Z,53.90
2017-10-05T08:57:02.046Z,53.60
2017-10-05T08:59:29.630Z,50.80
2017-10-05T09:01:57.185Z,49.80
2017-10-05T09:04:24.807Z,48.90
2017-10-05T09:06:52.381Z,46.90
2017-10-05T09:09:19.942Z,44.70
2017-10-05T09:11:47.526Z,41.10
2017-10-05T09:14:15.086Z,43.50
2017-10-05T09:16:44.275Z,41.70
2017-10-05T09:19:11.825Z,41.30
2017-10-05T09:21:39.389Z,43.10
2017-10-05T09:24:07.028Z,41.30
2017-10-05T09:26:35.406Z,41.50
2017-10-05T09:29:04.062Z,42.20
2017-10-05T09:31:31.673Z,42.20
2017-10-05T09:33:59.250Z,41.90
2017-10-05T09:36:26.835Z,41.40
2017-10-05T09:38:54.841Z,40.70
2017-10-05T09:41:22.401Z,40.50
2017-10-05T09:43:50.019Z,39.90
2017-10-05T09:46:17.578Z,39.40
2017-10-05T09:48:45.171Z,40.10
2017-10-05T09:51:12.747Z,41.10
2017-10-05T09:53:40.390Z,41.30
2017-10-05T09:56:08.694Z,42.10
2017-10-05T09:58:36.286Z,43.20
2017-10-05T10:01:04.654Z,42.20
2017-10-05T10:03:32.231Z,43.30
2017-10-05T10:06:01.361Z,43.50
2017-10-05T10:08:28.932Z,43.40
2017-10-05T10:13:27.886Z,44.20
2017-10-05T10:15:55.742Z,44.60
2017-10-05T10:18:23.344Z,45.80
2017-10-05T10:20:50.903Z,45.30
2017-10-05T10:23:18.526Z,45.10
2017-10-05T10:25:46.087Z,45.90
2017-10-05T10:28:13.637Z,45.10
2017-10-05T10:30:42.774Z,45.80
2017-10-05T10:33:10.332Z,45.50
2017-10-05T10:35:37.951Z,45.90
2017-10-05T10:38:05.518Z,45.30
2017-10-05T10:40:33.073Z,45.30
2017-10-05T10:43:01.450Z,44.40
2017-10-05T10:45:29.006Z,45.50
2017-10-05T10:47:56.630Z,45.00
2017-10-05T10:50:24.182Z,45.90
2017-10-05T10:52:51.734Z,45.70
2017-10-05T10:55:19.381Z,45.20
2017-10-05T10:57:46.955Z,43.60
2017-10-05T11:00:14.582Z,44.10
2017-10-05T11:02:42.139Z,43.80
2017-10-05T11:05:09.697Z,43.10
2017-10-05T11:07:37.682Z,42.60
2017-10-05T11:10:05.241Z,43.70
2017-10-05T11:12:32.823Z,43.80
2017-10-05T11:15:00.383Z,44.00
2017-10-05T11:17:28.753Z,43.20
2017-10-05T11:19:56.314Z,43.40
2017-10-05T11:22:23.866Z,42.20
2017-10-05T11:24:51.511Z,41.50
2017-10-05T11:27:19.070Z,42.70
2017-10-05T11:29:47.367Z,43.20
2017-10-05T11:32:15.418Z,42.50
2017-10-05T11:34:43.003Z,40.90
2017-10-05T11:37:11.166Z,41.10
2017-10-05T11:39:38.866Z,41.40
2017-10-05T11:42:07.739Z,42.00
2017-10-05T11:44:35.378Z,42.10
2017-10-05T11:47:02.935Z,41.70
2017-10-05T11:49:31.325Z,39.80
2017-10-05T11:51:58.953Z,39.40
2017-10-05T11:54:26.517Z,38.70
2017-10-05T11:56:54.905Z,40.00
2017-10-05T11:59:22.446Z,40.20
2017-10-05T12:01:50.005Z,39.60
2017-10-05T12:04:28.335Z,39.50
2017-10-05T12:06:55.899Z,39.20
2017-10-05T12:09:23.489Z,39.20
2017-10-05T12:11:51.040Z,38.10
2017-10-05T12:14:18.633Z,35.90
2017-10-05T12:16:46.170Z,36.60
2017-10-05T12:19:13.822Z,37.10
2017-10-05T12:21:41.384Z,35.20
2017-10-05T12:24:09.146Z,33.70
2017-10-05T12:26:36.749Z,32.80
2017-10-05T12:29:04.306Z,31.70
2017-10-05T12:31:31.899Z,32.20
2017-10-05T12:33:59.486Z,30.40
2017-10-05T12:36:27.085Z,30.90
2017-10-05T12:38:54.641Z,30.10
2017-10-05T12:41:22.224Z,32.30
2017-10-05T12:43:49.798Z,30.50
2017-10-05T12:46:17.520Z,29.90
2017-10-05T12:48:46.001Z,30.50
2017-10-05T12:51:18.705Z,30.60
2017-10-05T12:53:46.303Z,31.10
2017-10-05T12:56:13.857Z,29.80
2017-10-05T12:58:41.470Z,30.90
2017-10-05T13:01:09.032Z,28.70
2017-10-05T13:03:36.675Z,31.00
2017-10-05T13:06:04.251Z,30.20
2017-10-05T13:08:31.806Z,30.00
2017-10-05T13:10:59.479Z,30.00
2017-10-05T13:13:27.089Z,28.40
2017-10-05T13:15:54.701Z,29.60
2017-10-05T13:18:22.245Z,30.00
2017-10-05T13:20:49.870Z,29.60
2017-10-05T13:23:17.446Z,29.30
2017-10-05T13:25:45.003Z,29.50
2017-10-05T13:28:12.664Z,29.20
2017-10-05T13:30:41.306Z,30.00
2017-10-05T13:33:08.907Z,30.30
2017-10-05T13:35:36.468Z,29.80
2017-10-05T13:38:04.086Z,31.10
2017-10-05T13:40:31.643Z,31.50
2017-10-05T13:42:59.202Z,30.10
2017-10-05T13:45:26.801Z,31.80
2017-10-05T13:47:54.359Z,31.20
2017-10-05T13:50:21.946Z,31.00
2017-10-05T13:52:49.498Z,30.00
2017-10-05T13:55:17.051Z,29.80
2017-10-05T13:57:44.645Z,29.90
2017-10-05T14:00:12.202Z,30.00
2017-10-05T14:02:39.839Z,29.40
2017-10-05T14:05:07.645Z,29.40
2017-10-05T14:07:35.257Z,29.40
2017-10-05T14:10:02.817Z,28.20
2017-10-05T14:12:31.102Z,28.10
2017-10-05T14:14:58.686Z,28.40
2017-10-05T14:17:26.247Z,28.00
2017-10-05T14:19:53.843Z,28.10
2017-10-05T14:22:21.418Z,27.60
2017-10-05T14:24:49.028Z,27.40
2017-10-05T14:27:16.587Z,28.30
2017-10-05T14:29:44.195Z,27.20
2017-10-05T14:32:11.753Z,27.00
2017-10-05T14:34:40.270Z,27.00
2017-10-05T14:37:07.830Z,27.30
2017-10-05T14:39:35.494Z,27.10
2017-10-05T14:42:03.299Z,27.40
2017-10-05T14:44:30.857Z,27.60
2017-10-05T14:46:58.479Z,28.10
2017-10-05T14:49:26.042Z,28.40
2017-10-05T14:51:54.471Z,27.80
2017-10-05T14:56:53.803Z,27.80
2017-10-05T14:59:21.354Z,27.90
2017-10-05T15:01:48.911Z,28.20
2017-10-05T15:04:16.505Z,27.80
2017-10-05T15:06:44.119Z,28.90
2017-10-05T15:09:12.619Z,27.20
2017-10-05T15:11:42.013Z,26.90
2017-10-05T15:14:09.629Z,27.20
2017-10-05T15:16:38.965Z,27.90
2017-10-05T15:19:06.633Z,27.60
2017-10-05T15:21:34.228Z,27.50
2017-10-05T15:24:01.885Z,27.10
2017-10-05T15:26:29.512Z,27.90
2017-10-05T15:28:57.070Z,28.00
2017-10-05T15:31:24.664Z,29.10
2017-10-05T15:33:53.186Z,29.70
2017-10-05T15:36:20.842Z,30.80
2017-10-05T15:38:48.400Z,31.00
2017-10-05T15:41:15.987Z,31.00
2017-10-05T15:43:43.547Z,31.00
2017-10-05T15:46:11.143Z,30.80
2017-10-05T15:48:38.694Z,30.80
2017-10-05T15:51:06.327Z,30.00
2017-10-05T15:53:35.575Z,31.20
2017-10-05T15:56:03.518Z,30.90
2017-10-05T15:58:31.120Z,31.40
2017-10-05T16:00:58.677Z,31.70
2017-10-05T16:03:26.262Z,32.10
2017-10-05T16:05:53.814Z,31.70
2017-10-05T16:08:21.680Z,30.60
2017-10-05T16:10:49.229Z,30.00
2017-10-05T16:13:17.342Z,30.50
2017-10-05T16:15:45.725Z,30.30
2017-10-05T16:18:14.041Z,30.40
2017-10-05T16:20:42.035Z,30.10
2017-10-05T16:23:10.348Z,30.00
2017-10-05T16:25:38.030Z,30.20
2017-10-05T16:28:05.634Z,30.10
2017-10-05T16:30:33.629Z,30.30
2017-10-05T16:33:01.185Z,30.20
2017-10-05T16:35:28.792Z,31.00
2017-10-05T16:37:56.581Z,30.20
2017-10-05T16:40:24.234Z,30.20
2017-10-05T16:42:51.773Z,30.30
2017-10-05T16:45:19.332Z,30.50
2017-10-05T16:47:46.909Z,30.30
2017-10-05T16:50:14.448Z,30.60
2017-10-05T16:52:42.034Z,30.20
2017-10-05T16:55:09.814Z,30.40
2017-10-05T16:57:37.429Z,30.50
2017-10-05T17:00:04.988Z,30.80
2017-10-05T17:02:32.546Z,30.60
2017-10-05T17:05:00.922Z,30.20
2017-10-05T17:07:36.832Z,30.30
2017-10-05T17:10:05.217Z,31.30
2017-10-05T17:12:32.777Z,31.30
2017-10-05T17:15:00.402Z,31.40
2017-10-05T17:17:27.950Z,31.80
2017-10-05T17:19:55.502Z,32.20
2017-10-05T17:22:23.977Z,32.10
2017-10-05T17:24:52.302Z,32.80
2017-10-05T17:27:19.903Z,32.70
2017-10-05T17:29:47.462Z,32.80
2017-10-05T17:32:15.079Z,32.70
2017-10-05T17:34:42.635Z,32.70
2017-10-05T17:37:10.170Z,33.10
2017-10-05T17:39:37.759Z,33.40
2017-10-05T17:42:05.698Z,33.90
2017-10-05T17:44:33.281Z,34.60
2017-10-05T17:47:00.838Z,35.00
2017-10-05T17:49:28.442Z,35.30
2017-10-05T17:51:55.996Z,35.40
2017-10-05T17:54:23.586Z,35.60
2017-10-05T17:56:51.171Z,36.10
2017-10-05T17:59:19.202Z,37.00
2017-10-05T18:01:47.078Z,38.50
2017-10-05T18:04:14.667Z,39.00
2017-10-05T18:06:42.267Z,38.50
2017-10-05T18:09:09.846Z,38.60
2017-10-05T18:11:37.383Z,38.80
2017-10-05T18:14:04.961Z,39.10
2017-10-05T18:16:32.503Z,39.50
2017-10-05T18:19:01.603Z,40.00
2017-10-05T18:21:29.186Z,40.00
2017-10-05T18:23:56.726Z,40.70
2017-10-05T18:26:24.324Z,41.30
2017-10-05T18:28:51.928Z,41.60
2017-10-05T18:31:20.309Z,42.00
2017-10-05T18:33:47.866Z,42.50
2017-10-05T18:36:15.453Z,43.10
2017-10-05T18:38:43.002Z,43.40
2017-10-05T18:41:10.606Z,43.80
2017-10-05T18:43:38.161Z,46.20
2017-10-05T18:46:06.105Z,48.20
2017-10-05T18:48:34.121Z,51.70
2017-10-05T18:51:01.654Z,55.20
2017-10-05T18:53:29.271Z,57.80
2017-10-05T18:55:56.828Z,60.10
2017-10-05T18:58:24.489Z,61.50
2017-10-05T19:00:52.046Z,61.90
2017-10-05T19:03:20.369Z,63.30
2017-10-05T19:05:47.983Z,64.40
2017-10-05T19:08:15.539Z,66.60
2017-10-05T19:10:44.550Z,68.10
2017-10-05T19:13:12.142Z,69.50
2017-10-05T19:15:39.794Z,69.60
2017-10-05T19:18:07.735Z,70.20
2017-10-05T19:20:35.361Z,71.00
2017-10-05T19:23:02.921Z,72.30
2017-10-05T19:25:30.543Z,72.50
2017-10-05T19:27:58.103Z,73.30
2017-10-05T19:30:25.668Z,73.60
2017-10-05T19:32:53.271Z,73.90
2017-10-05T19:35:21.221Z,74.70
2017-10-05T19:37:48.914Z,75.50
2017-10-05T19:40:16.475Z,75.00
2017-10-05T19:42:44.103Z,75.10
2017-10-05T19:45:11.675Z,74.80
2017-10-05T19:47:39.278Z,75.10
2017-10-05T19:50:07.343Z,74.80
2017-10-05T19:52:34.948Z,74.60
2017-10-05T19:55:02.622Z,74.20
2017-10-05T19:57:30.183Z,74.30
2017-10-05T19:59:58.319Z,73.90
2017-10-05T20:02:25.916Z,73.70
2017-10-05T20:04:53.567Z,73.80
2017-10-05T20:07:21.119Z,72.90
2017-10-05T20:09:48.694Z,72.80
2017-10-05T20:12:16.350Z,72.70
2017-10-05T20:14:46.423Z,72.10
2017-10-05T20:17:19.699Z,72.90
2017-10-05T20:19:53.041Z,72.10
2017-10-05T20:22:36.877Z,72.20
2017-10-05T20:25:10.888Z,72.30
2017-10-05T20:41:25.459Z,72.70
2017-10-05T20:43:53.015Z,72.90
2017-10-05T20:46:20.614Z,72.30
2017-10-05T20:48:48.166Z,72.30
2017-10-05T20:51:15.761Z,72.70
2017-10-05T20:53:43.382Z,71.80
2017-10-05T20:56:11.013Z,71.50
2017-10-05T20:58:38.599Z,72.10
2017-10-05T21:01:06.160Z,71.70
2017-10-05T21:03:33.757Z,71.60
2017-10-05T21:06:01.317Z,71.30
2017-10-05T21:08:29.656Z,71.50
2017-10-05T21:10:57.207Z,71.80
2017-10-05T21:13:24.809Z,71.00
2017-10-05T21:15:52.366Z,71.00
2017-10-05T21:18:19.996Z,71.00
2017-10-05T21:20:47.542Z,71.30
2017-10-05T21:23:15.862Z,73.40
2017-10-05T21:25:44.323Z,69.60
2017-10-05T21:28:11.899Z,66.90
2017-10-05T21:30:39.491Z,61.80
2017-10-05T21:33:07.050Z,63.80
2017-10-05T21:35:34.735Z,62.60
2017-10-05T21:38:02.294Z,62.40
2017-10-05T21:40:29.910Z,65.20
2017-10-05T21:42:57.478Z,65.50
2017-10-05T21:45:25.083Z,64.20
2017-10-05T21:47:52.687Z,64.30
2017-10-05T21:50:20.247Z,64.70
2017-10-05T21:52:47.847Z,64.60
2017-10-05T21:55:16.179Z,63.70
2017-10-05T21:57:43.827Z,64.40
2017-10-05T22:00:11.385Z,63.80
2017-10-05T22:02:39.004Z,63.70
2017-10-05T22:05:06.578Z,62.20
2017-10-05T22:07:34.228Z,63.10
2017-10-05T22:10:01.788Z,62.60
2017-10-05T22:12:29.344Z,63.00
2017-10-05T22:14:56.957Z,64.10
2017-10-05T22:17:24.519Z,61.70
2017-10-05T22:19:52.156Z,59.80
2017-10-05T22:22:19.715Z,60.90
2017-10-05T22:24:47.340Z,60.60
2017-10-05T22:27:14.934Z,60.80
2017-10-05T22:29:42.493Z,58.00
2017-10-05T22:32:10.120Z,59.30
2017-10-05T22:34:37.747Z,59.60
2017-10-05T22:37:05.371Z,60.50
2017-10-05T22:39:32.928Z,60.40
2017-10-05T22:42:00.607Z,59.20
2017-10-05T22:44:28.162Z,58.40
2017-10-05T22:46:55.723Z,59.90
2017-10-05T22:49:23.322Z,60.20
2017-10-05T22:51:50.880Z,59.40
2017-10-05T22:54:18.500Z,60.20
2017-10-05T22:56:46.063Z,61.80
2017-10-05T22:59:13.960Z,62.60
2017-10-05T23:01:41.527Z,62.90
2017-10-05T23:04:09.082Z,63.40
2017-10-05T23:06:36.689Z,61.50
2017-10-05T23:09:04.657Z,60.20
2017-10-05T23:11:33.782Z,60.60
2017-10-05T23:14:01.436Z,60.00
2017-10-05T23:16:29.475Z,59.60
2017-10-05T23:18:57.050Z,60.70
2017-10-05T23:21:24.620Z,60.70
2017-10-05T23:23:52.215Z,60.90
2017-10-05T23:26:19.772Z,63.00
2017-10-05T23:28:47.370Z,65.10
2017-10-05T23:31:14.928Z,65.30
2017-10-05T23:33:42.553Z,64.70
2017-10-05T23:36:10.112Z,64.20
2017-10-05T23:38:37.670Z,63.60
2017-10-05T23:41:05.280Z,62.80
2017-10-05T23:43:32.834Z,63.70
2017-10-05T23:46:00.443Z,64.30
2017-10-05T23:48:28.003Z,64.90
2017-10-05T23:50:55.630Z,65.40
2017-10-05T23:53:23.975Z,65.10
2017-10-05T23:55:51.533Z,67.00
2017-10-05T23:58:19.155Z,65.60
